sensor_id;sensor_type;location;lat;lon;timestamp;pressure;altitude;pressure_sealevel;temperature;humidity
11672;BME280;5892;43.412;24.612;2023-04-30T00:00:27;99725.63;;;12.44;100.00
11672;BME280;5892;43.412;24.612;2023-04-30T00:02:54;99727.16;;;12.32;100.00
11672;BME280;5892;43.412;24.612;2023-04-30T00:05:23;99724.41;;;12.12;100.00
11672;BME280;5892;43.412;24.612;2023-04-30T00:07:51;99725.22;;;12.12;100.00
11672;BME280;5892;43.412;24.612;2023-04-30T00:10:18;99721.69;;;12.12;100.00
11672;BME280;5892;43.412;24.612;2023-04-30T00:12:44;99710.22;;;12.10;100.00
11672;BME280;5892;43.412;24.612;2023-04-30T00:15:11;99724.81;;;12.22;100.00
11672;BME280;5892;43.412;24.612;2023-04-30T00:17:38;99727.25;;;12.24;100.00
11672;BME280;5892;43.412;24.612;2023-04-30T00:20:06;99729.09;;;12.11;100.00
11672;BME280;5892;43.412;24.612;2023-04-30T00:22:34;99730.19;;;11.98;100.00
11672;BME280;5892;43.412;24.612;2023-04-30T00:25:01;99703.06;;;11.97;100.00
11672;BME280;5892;43.412;24.612;2023-04-30T00:27:28;99721.88;;;12.07;100.00
11672;BME280;5892;43.412;24.612;2023-04-30T00:29:56;99728.91;;;11.96;100.00
11672;BME280;5892;43.412;24.612;2023-04-30T00:32:22;99727.75;;;11.97;100.00
11672;BME280;5892;43.412;24.612;2023-04-30T00:34:49;99713.22;;;11.75;100.00
11672;BME280;5892;43.412;24.612;2023-04-30T00:37:16;99722.50;;;11.83;100.00
11672;BME280;5892;43.412;24.612;2023-04-30T00:39:45;99720.13;;;11.81;100.00
11672;BME280;5892;43.412;24.612;2023-04-30T00:42:11;99722.19;;;11.55;100.00
11672;BME280;5892;43.412;24.612;2023-04-30T00:44:38;99721.69;;;11.53;100.00
11672;BME280;5892;43.412;24.612;2023-04-30T00:47:05;99712.41;;;11.37;100.00
11672;BME280;5892;43.412;24.612;2023-04-30T00:49:32;99728.91;;;11.28;100.00
11672;BME280;5892;43.412;24.612;2023-04-30T00:51:59;99727.16;;;11.24;100.00
11672;BME280;5892;43.412;24.612;2023-04-30T00:54:28;99734.91;;;11.22;100.00
11672;BME280;5892;43.412;24.612;2023-04-30T00:56:57;99716.88;;;11.12;100.00
11672;BME280;5892;43.412;24.612;2023-04-30T00:59:24;99706.72;;;11.13;100.00
11672;BME280;5892;43.412;24.612;2023-04-30T01:01:51;99720.28;;;11.09;100.00
11672;BME280;5892;43.412;24.612;2023-04-30T01:04:19;99714.00;;;11.09;100.00
11672;BME280;5892;43.412;24.612;2023-04-30T01:06:46;99708.53;;;11.00;100.00
11672;BME280;5892;43.412;24.612;2023-04-30T01:09:13;99689.09;;;10.76;100.00
11672;BME280;5892;43.412;24.612;2023-04-30T01:11:49;99709.06;;;10.85;100.00
11672;BME280;5892;43.412;24.612;2023-04-30T01:14:24;99711.97;;;10.80;100.00
11672;BME280;5892;43.412;24.612;2023-04-30T01:17:01;99712.47;;;10.82;100.00
11672;BME280;5892;43.412;24.612;2023-04-30T01:19:37;99710.81;;;10.89;100.00
11672;BME280;5892;43.412;24.612;2023-04-30T01:22:11;99713.91;;;10.88;100.00
11672;BME280;5892;43.412;24.612;2023-04-30T01:25:00;99714.19;;;10.95;100.00
11672;BME280;5892;43.412;24.612;2023-04-30T01:30:28;99702.75;;;10.84;100.00
11672;BME280;5892;43.412;24.612;2023-04-30T01:32:57;99697.31;;;10.76;100.00
11672;BME280;5892;43.412;24.612;2023-04-30T01:35:34;99704.72;;;10.75;100.00
11672;BME280;5892;43.412;24.612;2023-04-30T01:38:18;99673.19;;;10.60;100.00
11672;BME280;5892;43.412;24.612;2023-04-30T01:40:58;99706.53;;;10.62;100.00
11672;BME280;5892;43.412;24.612;2023-04-30T01:43:33;99716.69;;;10.53;100.00
11672;BME280;5892;43.412;24.612;2023-04-30T01:46:12;99719.78;;;10.43;100.00
11672;BME280;5892;43.412;24.612;2023-04-30T01:48:52;99718.66;;;10.36;100.00
11672;BME280;5892;43.412;24.612;2023-04-30T01:51:26;99711.38;;;10.31;100.00
11672;BME280;5892;43.412;24.612;2023-04-30T01:53:57;99693.66;;;10.11;100.00
11672;BME280;5892;43.412;24.612;2023-04-30T01:56:34;99700.09;;;10.07;100.00
11672;BME280;5892;43.412;24.612;2023-04-30T01:59:03;99706.38;;;9.99;100.00
11672;BME280;5892;43.412;24.612;2023-04-30T02:01:34;99708.94;;;9.95;100.00
11672;BME280;5892;43.412;24.612;2023-04-30T02:04:00;99630.34;;;9.44;100.00
11672;BME280;5892;43.412;24.612;2023-04-30T02:06:28;99680.63;;;9.83;100.00
11672;BME280;5892;43.412;24.612;2023-04-30T02:08:56;99704.91;;;9.84;100.00
11672;BME280;5892;43.412;24.612;2023-04-30T02:11:27;99709.59;;;9.92;100.00
11672;BME280;5892;43.412;24.612;2023-04-30T02:13:54;99713.59;;;9.95;100.00
11672;BME280;5892;43.412;24.612;2023-04-30T02:16:22;99721.03;;;9.94;100.00
11672;BME280;5892;43.412;24.612;2023-04-30T02:18:50;99722.47;;;10.00;100.00
11672;BME280;5892;43.412;24.612;2023-04-30T02:21:17;99717.34;;;9.99;100.00
11672;BME280;5892;43.412;24.612;2023-04-30T02:23:44;99721.66;;;10.00;100.00
11672;BME280;5892;43.412;24.612;2023-04-30T02:26:12;99715.56;;;10.03;100.00
11672;BME280;5892;43.412;24.612;2023-04-30T02:28:39;99702.34;;;9.88;100.00
11672;BME280;5892;43.412;24.612;2023-04-30T02:31:06;99716.69;;;9.93;100.00
11672;BME280;5892;43.412;24.612;2023-04-30T02:33:33;99716.03;;;9.96;100.00
11672;BME280;5892;43.412;24.612;2023-04-30T02:36:02;99729.41;;;9.98;100.00
11672;BME280;5892;43.412;24.612;2023-04-30T02:38:29;99721.38;;;10.10;100.00
11672;BME280;5892;43.412;24.612;2023-04-30T02:40:55;99724.44;;;10.17;100.00
11672;BME280;5892;43.412;24.612;2023-04-30T02:43:22;99718.66;;;10.18;100.00
11672;BME280;5892;43.412;24.612;2023-04-30T02:45:49;99718.34;;;10.20;100.00
11672;BME280;5892;43.412;24.612;2023-04-30T02:48:16;99715.44;;;10.16;100.00
11672;BME280;5892;43.412;24.612;2023-04-30T02:50:44;99720.38;;;10.06;100.00
11672;BME280;5892;43.412;24.612;2023-04-30T02:53:13;99721.03;;;10.03;100.00
11672;BME280;5892;43.412;24.612;2023-04-30T02:55:39;99723.28;;;10.01;100.00
11672;BME280;5892;43.412;24.612;2023-04-30T02:58:06;99728.44;;;9.94;100.00
11672;BME280;5892;43.412;24.612;2023-04-30T03:00:34;99724.41;;;9.91;100.00
11672;BME280;5892;43.412;24.612;2023-04-30T03:03:00;99723.44;;;9.78;100.00
11672;BME280;5892;43.412;24.612;2023-04-30T03:05:28;99716.31;;;9.69;100.00
11672;BME280;5892;43.412;24.612;2023-04-30T03:07:55;99716.78;;;9.62;100.00
11672;BME280;5892;43.412;24.612;2023-04-30T03:10:24;99724.00;;;9.58;100.00
11672;BME280;5892;43.412;24.612;2023-04-30T03:12:51;99730.78;;;9.61;100.00
11672;BME280;5892;43.412;24.612;2023-04-30T03:15:18;99700.94;;;9.42;100.00
11672;BME280;5892;43.412;24.612;2023-04-30T03:17:45;99735.59;;;9.64;100.00
11672;BME280;5892;43.412;24.612;2023-04-30T03:20:12;99728.66;;;9.49;100.00
11672;BME280;5892;43.412;24.612;2023-04-30T03:22:41;99731.81;;;9.34;100.00
11672;BME280;5892;43.412;24.612;2023-04-30T03:25:09;99731.03;;;9.42;100.00
11672;BME280;5892;43.412;24.612;2023-04-30T03:27:37;99723.63;;;9.43;100.00
11672;BME280;5892;43.412;24.612;2023-04-30T03:30:05;99718.31;;;9.38;100.00
11672;BME280;5892;43.412;24.612;2023-04-30T03:32:33;99729.16;;;9.51;100.00
11672;BME280;5892;43.412;24.612;2023-04-30T03:35:00;99732.66;;;9.43;100.00
11672;BME280;5892;43.412;24.612;2023-04-30T03:37:28;99716.38;;;9.38;100.00
11672;BME280;5892;43.412;24.612;2023-04-30T03:39:55;99757.03;;;9.62;100.00
11672;BME280;5892;43.412;24.612;2023-04-30T03:42:22;99745.78;;;9.72;100.00
11672;BME280;5892;43.412;24.612;2023-04-30T03:44:50;99755.56;;;9.64;100.00
11672;BME280;5892;43.412;24.612;2023-04-30T03:47:17;99738.31;;;9.55;100.00
11672;BME280;5892;43.412;24.612;2023-04-30T03:49:44;99755.91;;;9.63;100.00
11672;BME280;5892;43.412;24.612;2023-04-30T03:52:19;99753.31;;;9.66;100.00
11672;BME280;5892;43.412;24.612;2023-04-30T03:54:46;99760.63;;;9.88;100.00
11672;BME280;5892;43.412;24.612;2023-04-30T03:57:13;99767.56;;;10.11;100.00
11672;BME280;5892;43.412;24.612;2023-04-30T03:59:40;99755.84;;;10.62;100.00
11672;BME280;5892;43.412;24.612;2023-04-30T04:02:08;99760.72;;;11.21;100.00
11672;BME280;5892;43.412;24.612;2023-04-30T04:04:35;99773.88;;;11.36;99.91
11672;BME280;5892;43.412;24.612;2023-04-30T04:07:02;99773.16;;;11.18;99.97
11672;BME280;5892;43.412;24.612;2023-04-30T04:09:32;99765.16;;;10.96;100.00
11672;BME280;5892;43.412;24.612;2023-04-30T04:12:00;99757.44;;;10.81;100.00
11672;BME280;5892;43.412;24.612;2023-04-30T04:14:27;99769.69;;;10.92;100.00
11672;BME280;5892;43.412;24.612;2023-04-30T04:16:55;99768.38;;;11.44;100.00
11672;BME280;5892;43.412;24.612;2023-04-30T04:19:25;99757.38;;;12.32;95.54
11672;BME280;5892;43.412;24.612;2023-04-30T04:21:53;99771.19;;;13.10;88.61
11672;BME280;5892;43.412;24.612;2023-04-30T04:24:21;99768.09;;;13.45;85.54
11672;BME280;5892;43.412;24.612;2023-04-30T04:26:50;99766.22;;;13.97;82.81
11672;BME280;5892;43.412;24.612;2023-04-30T04:29:17;99770.91;;;14.33;80.30
11672;BME280;5892;43.412;24.612;2023-04-30T04:31:44;99770.94;;;14.61;77.85
11672;BME280;5892;43.412;24.612;2023-04-30T04:34:13;99760.38;;;14.91;75.10
11672;BME280;5892;43.412;24.612;2023-04-30T04:36:45;99772.19;;;15.51;72.16
11672;BME280;5892;43.412;24.612;2023-04-30T04:39:14;99778.84;;;15.97;69.12
11672;BME280;5892;43.412;24.612;2023-04-30T04:41:42;99783.56;;;15.96;68.31
11672;BME280;5892;43.412;24.612;2023-04-30T04:44:10;99779.25;;;15.80;69.30
11672;BME280;5892;43.412;24.612;2023-04-30T04:46:37;99775.25;;;15.61;70.21
11672;BME280;5892;43.412;24.612;2023-04-30T04:49:06;99769.59;;;15.42;70.85
11672;BME280;5892;43.412;24.612;2023-04-30T04:51:33;99711.28;;;15.59;68.82
11672;BME280;5892;43.412;24.612;2023-04-30T04:54:06;99770.53;;;16.47;66.85
11672;BME280;5892;43.412;24.612;2023-04-30T04:56:34;99765.00;;;16.47;65.61
11672;BME280;5892;43.412;24.612;2023-04-30T04:59:03;99767.38;;;16.30;66.25
11672;BME280;5892;43.412;24.612;2023-04-30T05:01:30;99770.53;;;16.47;67.02
11672;BME280;5892;43.412;24.612;2023-04-30T05:03:57;99777.38;;;16.53;66.39
11672;BME280;5892;43.412;24.612;2023-04-30T05:06:24;99753.81;;;16.79;65.49
11672;BME280;5892;43.412;24.612;2023-04-30T05:08:53;99739.38;;;16.70;64.91
11672;BME280;5892;43.412;24.612;2023-04-30T05:11:25;99780.31;;;16.61;65.57
11672;BME280;5892;43.412;24.612;2023-04-30T05:13:53;99776.28;;;16.04;66.78
11672;BME280;5892;43.412;24.612;2023-04-30T05:16:22;99785.06;;;15.75;68.75
11672;BME280;5892;43.412;24.612;2023-04-30T05:18:52;99781.53;;;15.46;70.11
11672;BME280;5892;43.412;24.612;2023-04-30T05:21:20;99792.00;;;15.68;71.24
11672;BME280;5892;43.412;24.612;2023-04-30T05:23:50;99749.03;;;15.55;71.78
11672;BME280;5892;43.412;24.612;2023-04-30T05:26:18;99789.78;;;15.74;74.36
11672;BME280;5892;43.412;24.612;2023-04-30T05:28:48;99788.50;;;15.72;75.46
11672;BME280;5892;43.412;24.612;2023-04-30T05:31:17;99789.13;;;15.81;75.05
11672;BME280;5892;43.412;24.612;2023-04-30T05:33:45;99814.66;;;16.25;72.98
11672;BME280;5892;43.412;24.612;2023-04-30T05:36:12;99805.28;;;16.29;69.82
11672;BME280;5892;43.412;24.612;2023-04-30T05:38:40;99793.19;;;16.02;68.87
11672;BME280;5892;43.412;24.612;2023-04-30T05:41:11;99783.25;;;15.82;69.90
11672;BME280;5892;43.412;24.612;2023-04-30T05:43:38;99809.13;;;16.25;69.53
11672;BME280;5892;43.412;24.612;2023-04-30T05:46:08;99796.25;;;15.82;70.05
11672;BME280;5892;43.412;24.612;2023-04-30T05:48:35;99806.13;;;16.14;70.32
11672;BME280;5892;43.412;24.612;2023-04-30T05:51:03;99753.94;;;16.47;68.37
11672;BME280;5892;43.412;24.612;2023-04-30T05:53:31;99807.63;;;16.81;66.85
11672;BME280;5892;43.412;24.612;2023-04-30T05:55:59;99779.59;;;16.64;67.67
11672;BME280;5892;43.412;24.612;2023-04-30T05:58:27;99808.41;;;16.63;67.89
11672;BME280;5892;43.412;24.612;2023-04-30T06:00:54;99792.50;;;16.40;68.87
11672;BME280;5892;43.412;24.612;2023-04-30T06:03:26;99810.03;;;16.64;69.73
11672;BME280;5892;43.412;24.612;2023-04-30T06:05:54;99803.53;;;16.75;69.76
11672;BME280;5892;43.412;24.612;2023-04-30T06:08:21;99778.53;;;17.33;68.41
11672;BME280;5892;43.412;24.612;2023-04-30T06:10:50;99812.88;;;17.93;66.76
11672;BME280;5892;43.412;24.612;2023-04-30T06:13:17;99797.72;;;17.87;64.52
11672;BME280;5892;43.412;24.612;2023-04-30T06:15:47;99794.97;;;18.13;65.14
11672;BME280;5892;43.412;24.612;2023-04-30T06:18:27;99813.19;;;18.41;62.75
11672;BME280;5892;43.412;24.612;2023-04-30T06:20:55;99808.50;;;18.45;62.36
11672;BME280;5892;43.412;24.612;2023-04-30T06:23:22;99775.41;;;18.59;60.66
11672;BME280;5892;43.412;24.612;2023-04-30T06:25:49;99796.00;;;18.58;61.06
11672;BME280;5892;43.412;24.612;2023-04-30T06:28:18;99809.44;;;18.86;59.49
11672;BME280;5892;43.412;24.612;2023-04-30T06:30:50;99808.13;;;18.20;58.33
11672;BME280;5892;43.412;24.612;2023-04-30T06:33:18;99821.28;;;18.27;58.88
11672;BME280;5892;43.412;24.612;2023-04-30T06:35:51;99807.56;;;18.37;58.45
11672;BME280;5892;43.412;24.612;2023-04-30T06:38:20;99815.13;;;18.63;57.68
11672;BME280;5892;43.412;24.612;2023-04-30T06:40:50;99812.56;;;18.25;58.39
11672;BME280;5892;43.412;24.612;2023-04-30T06:43:17;99818.06;;;18.47;58.69
11672;BME280;5892;43.412;24.612;2023-04-30T06:45:44;99806.97;;;18.77;58.27
11672;BME280;5892;43.412;24.612;2023-04-30T06:48:12;99801.97;;;18.60;57.39
11672;BME280;5892;43.412;24.612;2023-04-30T06:50:40;99773.16;;;18.68;57.28
11672;BME280;5892;43.412;24.612;2023-04-30T06:53:13;99816.22;;;19.22;56.40
11672;BME280;5892;43.412;24.612;2023-04-30T06:55:41;99756.34;;;18.87;55.70
11672;BME280;5892;43.412;24.612;2023-04-30T06:58:08;99758.97;;;18.77;54.46
11672;BME280;5892;43.412;24.612;2023-04-30T07:00:35;99812.94;;;19.13;53.58
11672;BME280;5892;43.412;24.612;2023-04-30T07:03:04;99813.59;;;18.99;55.15
11672;BME280;5892;43.412;24.612;2023-04-30T07:05:32;99805.41;;;18.80;55.09
11672;BME280;5892;43.412;24.612;2023-04-30T07:08:00;99814.78;;;18.68;56.59
11672;BME280;5892;43.412;24.612;2023-04-30T07:10:30;99808.28;;;18.31;58.57
11672;BME280;5892;43.412;24.612;2023-04-30T07:12:57;99814.41;;;18.43;59.48
11672;BME280;5892;43.412;24.612;2023-04-30T07:15:24;99819.25;;;17.97;60.43
11672;BME280;5892;43.412;24.612;2023-04-30T07:17:51;99815.63;;;17.93;62.27
11672;BME280;5892;43.412;24.612;2023-04-30T07:20:21;99820.94;;;18.54;60.74
11672;BME280;5892;43.412;24.612;2023-04-30T07:22:50;99808.53;;;19.08;58.92
11672;BME280;5892;43.412;24.612;2023-04-30T07:25:19;99772.44;;;19.12;56.50
11672;BME280;5892;43.412;24.612;2023-04-30T07:27:50;99814.84;;;19.82;55.99
11672;BME280;5892;43.412;24.612;2023-04-30T07:30:19;99744.00;;;19.62;55.96
11672;BME280;5892;43.412;24.612;2023-04-30T07:32:50;99821.41;;;20.08;54.40
11672;BME280;5892;43.412;24.612;2023-04-30T07:35:17;99817.03;;;20.10;53.93
11672;BME280;5892;43.412;24.612;2023-04-30T07:37:44;99816.94;;;19.93;54.93
11672;BME280;5892;43.412;24.612;2023-04-30T07:40:12;99827.06;;;20.22;54.23
11672;BME280;5892;43.412;24.612;2023-04-30T07:42:39;99813.19;;;20.25;52.98
11672;BME280;5892;43.412;24.612;2023-04-30T07:45:09;99829.28;;;20.46;52.43
11672;BME280;5892;43.412;24.612;2023-04-30T07:47:38;99800.47;;;20.28;51.93
11672;BME280;5892;43.412;24.612;2023-04-30T07:50:06;99824.47;;;20.43;50.64
11672;BME280;5892;43.412;24.612;2023-04-30T07:52:34;99803.56;;;20.16;50.10
11672;BME280;5892;43.412;24.612;2023-04-30T07:55:01;99817.19;;;20.28;51.37
11672;BME280;5892;43.412;24.612;2023-04-30T07:57:29;99809.84;;;20.02;50.33
11672;BME280;5892;43.412;24.612;2023-04-30T07:59:56;99810.09;;;20.34;50.51
11672;BME280;5892;43.412;24.612;2023-04-30T08:02:27;99818.41;;;20.30;51.11
11672;BME280;5892;43.412;24.612;2023-04-30T08:04:55;99818.22;;;20.60;49.05
11672;BME280;5892;43.412;24.612;2023-04-30T08:07:22;99808.22;;;20.52;46.46
11672;BME280;5892;43.412;24.612;2023-04-30T08:09:50;99758.41;;;20.37;45.54
11672;BME280;5892;43.412;24.612;2023-04-30T08:12:18;99808.72;;;20.76;44.35
11672;BME280;5892;43.412;24.612;2023-04-30T08:14:46;99814.25;;;20.68;45.13
11672;BME280;5892;43.412;24.612;2023-04-30T08:17:15;99804.34;;;20.75;44.51
11672;BME280;5892;43.412;24.612;2023-04-30T08:19:44;99797.19;;;20.73;45.24
11672;BME280;5892;43.412;24.612;2023-04-30T08:22:11;99797.69;;;20.93;44.14
11672;BME280;5892;43.412;24.612;2023-04-30T08:24:39;99793.72;;;21.01;44.00
11672;BME280;5892;43.412;24.612;2023-04-30T08:27:07;99795.72;;;21.08;43.29
11672;BME280;5892;43.412;24.612;2023-04-30T08:29:35;99783.72;;;20.86;42.84
11672;BME280;5892;43.412;24.612;2023-04-30T08:32:02;99786.63;;;21.18;42.71
11672;BME280;5892;43.412;24.612;2023-04-30T08:34:30;99783.19;;;20.59;43.37
11672;BME280;5892;43.412;24.612;2023-04-30T08:37:00;99796.84;;;20.86;44.04
11672;BME280;5892;43.412;24.612;2023-04-30T08:39:29;99774.47;;;20.68;43.02
11672;BME280;5892;43.412;24.612;2023-04-30T08:41:56;99800.72;;;20.63;44.09
11672;BME280;5892;43.412;24.612;2023-04-30T08:44:28;99791.22;;;20.79;43.46
11672;BME280;5892;43.412;24.612;2023-04-30T08:47:00;99788.06;;;20.80;43.49
11672;BME280;5892;43.412;24.612;2023-04-30T08:49:29;99786.16;;;21.05;43.17
11672;BME280;5892;43.412;24.612;2023-04-30T08:52:03;99768.53;;;20.69;43.38
11672;BME280;5892;43.412;24.612;2023-04-30T08:54:30;99784.22;;;21.20;42.72
11672;BME280;5892;43.412;24.612;2023-04-30T08:57:00;99713.25;;;20.79;41.54
11672;BME280;5892;43.412;24.612;2023-04-30T08:59:38;99761.09;;;21.02;42.84
11672;BME280;5892;43.412;24.612;2023-04-30T09:02:06;99783.47;;;21.34;43.77
11672;BME280;5892;43.412;24.612;2023-04-30T09:04:35;99789.06;;;21.51;42.40
11672;BME280;5892;43.412;24.612;2023-04-30T09:07:05;99776.75;;;21.67;40.98
11672;BME280;5892;43.412;24.612;2023-04-30T09:09:37;99782.75;;;21.97;40.57
11672;BME280;5892;43.412;24.612;2023-04-30T09:12:13;99773.53;;;22.28;40.65
11672;BME280;5892;43.412;24.612;2023-04-30T09:14:58;99776.72;;;22.23;40.66
11672;BME280;5892;43.412;24.612;2023-04-30T09:17:26;99780.63;;;22.51;40.93
11672;BME280;5892;43.412;24.612;2023-04-30T09:19:55;99757.84;;;22.63;40.87
11672;BME280;5892;43.412;24.612;2023-04-30T09:22:39;99771.06;;;22.55;38.53
11672;BME280;5892;43.412;24.612;2023-04-30T09:25:09;99759.56;;;22.21;38.81
11672;BME280;5892;43.412;24.612;2023-04-30T09:27:38;99768.28;;;22.55;39.74
11672;BME280;5892;43.412;24.612;2023-04-30T09:30:09;99746.84;;;22.13;38.90
11672;BME280;5892;43.412;24.612;2023-04-30T09:33:02;99747.22;;;22.26;40.35
11672;BME280;5892;43.412;24.612;2023-04-30T09:35:32;99755.22;;;22.17;40.24
11672;BME280;5892;43.412;24.612;2023-04-30T09:38:04;99766.78;;;22.12;41.74
11672;BME280;5892;43.412;24.612;2023-04-30T09:40:39;99765.16;;;22.28;41.27
11672;BME280;5892;43.412;24.612;2023-04-30T09:43:11;99767.53;;;22.19;39.12
11672;BME280;5892;43.412;24.612;2023-04-30T09:45:41;99767.56;;;21.80;40.21
11672;BME280;5892;43.412;24.612;2023-04-30T09:48:09;99732.53;;;21.44;41.57
11672;BME280;5892;43.412;24.612;2023-04-30T09:50:37;99727.34;;;21.64;40.73
11672;BME280;5892;43.412;24.612;2023-04-30T09:53:08;99747.22;;;21.30;41.50
11672;BME280;5892;43.412;24.612;2023-04-30T09:55:43;99748.78;;;21.13;42.28
11672;BME280;5892;43.412;24.612;2023-04-30T09:58:11;99751.63;;;21.49;41.50
11672;BME280;5892;43.412;24.612;2023-04-30T10:00:41;99728.44;;;21.09;39.85
11672;BME280;5892;43.412;24.612;2023-04-30T10:03:12;99747.25;;;21.48;40.42
11672;BME280;5892;43.412;24.612;2023-04-30T10:05:41;99744.88;;;21.50;41.08
11672;BME280;5892;43.412;24.612;2023-04-30T10:08:20;99745.25;;;21.73;40.23
11672;BME280;5892;43.412;24.612;2023-04-30T10:10:53;99748.44;;;21.86;40.80
11672;BME280;5892;43.412;24.612;2023-04-30T10:13:30;99751.25;;;21.75;41.39
11672;BME280;5892;43.412;24.612;2023-04-30T10:15:58;99746.47;;;21.97;41.88
11672;BME280;5892;43.412;24.612;2023-04-30T10:18:30;99741.25;;;22.17;41.51
11672;BME280;5892;43.412;24.612;2023-04-30T10:21:02;99729.75;;;21.97;41.13
11672;BME280;5892;43.412;24.612;2023-04-30T10:23:38;99723.75;;;22.06;42.07
11672;BME280;5892;43.412;24.612;2023-04-30T10:26:09;99731.34;;;21.98;41.28
11672;BME280;5892;43.412;24.612;2023-04-30T10:28:36;99701.84;;;21.97;42.50
11672;BME280;5892;43.412;24.612;2023-04-30T10:31:06;99678.69;;;22.07;42.65
11672;BME280;5892;43.412;24.612;2023-04-30T10:33:44;99718.91;;;22.27;41.84
11672;BME280;5892;43.412;24.612;2023-04-30T10:36:22;99690.97;;;22.34;42.77
11672;BME280;5892;43.412;24.612;2023-04-30T10:38:57;99720.44;;;22.50;42.91
11672;BME280;5892;43.412;24.612;2023-04-30T10:41:25;99703.19;;;22.62;41.33
11672;BME280;5892;43.412;24.612;2023-04-30T10:44:00;99707.59;;;22.63;41.17
11672;BME280;5892;43.412;24.612;2023-04-30T10:46:30;99696.91;;;22.44;41.98
11672;BME280;5892;43.412;24.612;2023-04-30T10:49:00;99655.91;;;22.26;41.89
11672;BME280;5892;43.412;24.612;2023-04-30T10:51:45;99696.13;;;22.43;42.30
11672;BME280;5892;43.412;24.612;2023-04-30T10:54:15;99698.47;;;22.52;42.30
11672;BME280;5892;43.412;24.612;2023-04-30T10:56:51;99698.78;;;22.75;42.30
11672;BME280;5892;43.412;24.612;2023-04-30T10:59:23;99683.28;;;22.60;41.81
11672;BME280;5892;43.412;24.612;2023-04-30T11:01:54;99689.97;;;22.80;41.62
11672;BME280;5892;43.412;24.612;2023-04-30T11:04:22;99669.69;;;22.62;41.18
11672;BME280;5892;43.412;24.612;2023-04-30T11:07:01;99683.94;;;22.92;41.84
11672;BME280;5892;43.412;24.612;2023-04-30T11:09:41;99673.19;;;22.87;40.69
11672;BME280;5892;43.412;24.612;2023-04-30T11:12:13;99687.56;;;22.82;39.58
11672;BME280;5892;43.412;24.612;2023-04-30T11:14:42;99695.91;;;22.89;39.43
11672;BME280;5892;43.412;24.612;2023-04-30T11:17:10;99680.97;;;23.13;39.27
11672;BME280;5892;43.412;24.612;2023-04-30T11:19:47;99680.97;;;23.17;38.93
11672;BME280;5892;43.412;24.612;2023-04-30T11:22:15;99675.31;;;22.55;39.11
11672;BME280;5892;43.412;24.612;2023-04-30T11:25:04;99673.22;;;22.80;39.63
11672;BME280;5892;43.412;24.612;2023-04-30T11:27:33;99639.81;;;22.55;38.34
11672;BME280;5892;43.412;24.612;2023-04-30T11:30:02;99665.22;;;22.82;38.71
11672;BME280;5892;43.412;24.612;2023-04-30T11:32:34;99669.25;;;22.67;39.62
11672;BME280;5892;43.412;24.612;2023-04-30T11:35:02;99664.75;;;22.94;39.95
11672;BME280;5892;43.412;24.612;2023-04-30T11:37:33;99656.88;;;22.75;38.84
11672;BME280;5892;43.412;24.612;2023-04-30T11:40:04;99670.88;;;22.64;39.26
11672;BME280;5892;43.412;24.612;2023-04-30T11:42:32;99671.66;;;22.72;37.72
11672;BME280;5892;43.412;24.612;2023-04-30T11:45:05;99665.22;;;22.86;39.74
11672;BME280;5892;43.412;24.612;2023-04-30T11:47:42;99658.28;;;23.04;39.37
11672;BME280;5892;43.412;24.612;2023-04-30T11:50:13;99664.13;;;23.24;39.40
11672;BME280;5892;43.412;24.612;2023-04-30T11:52:41;99660.03;;;23.39;38.85
11672;BME280;5892;43.412;24.612;2023-04-30T11:55:14;99664.81;;;23.39;38.06
11672;BME280;5892;43.412;24.612;2023-04-30T11:57:43;99659.84;;;23.12;38.36
11672;BME280;5892;43.412;24.612;2023-04-30T12:00:12;99618.75;;;23.06;38.59
11672;BME280;5892;43.412;24.612;2023-04-30T12:02:39;99656.13;;;23.26;39.23
11672;BME280;5892;43.412;24.612;2023-04-30T12:05:14;99658.00;;;23.40;37.34
11672;BME280;5892;43.412;24.612;2023-04-30T12:07:51;99649.09;;;23.07;36.43
11672;BME280;5892;43.412;24.612;2023-04-30T12:10:21;99658.06;;;22.81;35.72
11672;BME280;5892;43.412;24.612;2023-04-30T12:12:50;99627.06;;;22.54;36.74
11672;BME280;5892;43.412;24.612;2023-04-30T12:15:20;99651.63;;;22.84;37.58
11672;BME280;5892;43.412;24.612;2023-04-30T12:17:51;99649.59;;;22.92;38.02
11672;BME280;5892;43.412;24.612;2023-04-30T12:20:20;99641.03;;;22.51;39.07
11672;BME280;5892;43.412;24.612;2023-04-30T12:22:49;99645.47;;;22.41;39.88
11672;BME280;5892;43.412;24.612;2023-04-30T12:25:18;99643.41;;;22.52;39.26
11672;BME280;5892;43.412;24.612;2023-04-30T12:27:51;99646.13;;;22.66;38.28
11672;BME280;5892;43.412;24.612;2023-04-30T12:30:20;99641.56;;;22.21;38.36
11672;BME280;5892;43.412;24.612;2023-04-30T12:32:49;99636.84;;;22.04;39.14
11672;BME280;5892;43.412;24.612;2023-04-30T12:35:20;99630.88;;;22.02;38.19
11672;BME280;5892;43.412;24.612;2023-04-30T12:37:49;99558.78;;;21.86;37.90
11672;BME280;5892;43.412;24.612;2023-04-30T12:40:18;99598.03;;;22.37;36.12
11672;BME280;5892;43.412;24.612;2023-04-30T12:42:47;99589.63;;;22.45;37.04
11672;BME280;5892;43.412;24.612;2023-04-30T12:45:43;99622.44;;;22.96;35.33
11672;BME280;5892;43.412;24.612;2023-04-30T12:48:11;99629.69;;;22.86;37.73
11672;BME280;5892;43.412;24.612;2023-04-30T12:50:39;99618.19;;;22.70;38.51
11672;BME280;5892;43.412;24.612;2023-04-30T12:53:06;99609.41;;;22.68;38.30
11672;BME280;5892;43.412;24.612;2023-04-30T12:55:34;99618.56;;;22.79;38.70
11672;BME280;5892;43.412;24.612;2023-04-30T12:58:24;99605.19;;;23.04;38.30
11672;BME280;5892;43.412;24.612;2023-04-30T13:00:58;99612.84;;;22.93;37.46
11672;BME280;5892;43.412;24.612;2023-04-30T13:03:25;99612.34;;;22.47;38.42
11672;BME280;5892;43.412;24.612;2023-04-30T13:05:55;99569.13;;;22.03;38.69
11672;BME280;5892;43.412;24.612;2023-04-30T13:08:23;99602.00;;;22.44;38.05
11672;BME280;5892;43.412;24.612;2023-04-30T13:10:52;99572.09;;;22.40;37.60
11672;BME280;5892;43.412;24.612;2023-04-30T13:13:25;99595.56;;;22.54;38.20